Little Horse Creek, North Carolina
Current Conditions -  °F | °C
As of 3:35 PM on Thursday 27 Nov 2014 (Local Time) from KGEV Reporting Station
Overcast Overcast  
Wind Chill: 16°   Ceiling: 2000
Heat Index: 30°   Visibility: 10mi
Dew Point: 21°   Wind: 26mph
Humidity: 69%   Direction: 300°WNW
Pressure: 30.05"   Gusts: 32mph
Location:  36.524°N, 81.538°W
Report Text: KGEV 272035Z AUTO 30023G28KT 10SM OVC020 M01/M06 A3005 RMK AO2 T10101060
Loading
Personal Weather Stations






























Interactive Weather Map New forecast layout! Learn more

10-Day Weather Forecast

Advertisements
Track Severe Weather on mobile